sensor_id;sensor_type;location;lat;lon;timestamp;P1;durP1;ratioP1;P2;durP2;ratioP2
73632;SDS011;61927;50.080;14.418;2023-05-25T00:02:00;9.20;;;3.60;;
73632;SDS011;61927;50.080;14.418;2023-05-25T00:04:31;14.32;;;4.57;;
73632;SDS011;61927;50.080;14.418;2023-05-25T00:07:01;14.85;;;4.47;;
73632;SDS011;61927;50.080;14.418;2023-05-25T00:09:27;10.43;;;4.47;;
73632;SDS011;61927;50.080;14.418;2023-05-25T00:11:53;14.50;;;4.80;;
73632;SDS011;61927;50.080;14.418;2023-05-25T00:14:19;12.82;;;4.32;;
73632;SDS011;61927;50.080;14.418;2023-05-25T00:16:45;13.45;;;4.57;;
73632;SDS011;61927;50.080;14.418;2023-05-25T00:19:12;21.35;;;4.68;;
73632;SDS011;61927;50.080;14.418;2023-05-25T00:21:39;13.48;;;4.93;;
73632;SDS011;61927;50.080;14.418;2023-05-25T00:24:08;14.02;;;4.70;;
73632;SDS011;61927;50.080;14.418;2023-05-25T00:26:34;12.15;;;4.53;;
73632;SDS011;61927;50.080;14.418;2023-05-25T00:28:59;17.70;;;4.85;;
73632;SDS011;61927;50.080;14.418;2023-05-25T00:31:26;16.00;;;5.53;;
73632;SDS011;61927;50.080;14.418;2023-05-25T00:33:52;21.75;;;5.20;;
73632;SDS011;61927;50.080;14.418;2023-05-25T00:36:18;13.70;;;4.63;;
73632;SDS011;61927;50.080;14.418;2023-05-25T00:38:43;12.48;;;4.22;;
73632;SDS011;61927;50.080;14.418;2023-05-25T00:41:09;13.43;;;4.95;;
73632;SDS011;61927;50.080;14.418;2023-05-25T00:43:35;25.23;;;5.82;;
73632;SDS011;61927;50.080;14.418;2023-05-25T00:46:01;13.40;;;4.70;;
73632;SDS011;61927;50.080;14.418;2023-05-25T00:48:27;18.85;;;5.15;;
73632;SDS011;61927;50.080;14.418;2023-05-25T00:50:54;16.40;;;5.43;;
73632;SDS011;61927;50.080;14.418;2023-05-25T00:53:24;13.00;;;5.03;;
73632;SDS011;61927;50.080;14.418;2023-05-25T00:55:56;21.17;;;5.20;;
73632;SDS011;61927;50.080;14.418;2023-05-25T00:58:27;13.32;;;4.97;;
73632;SDS011;61927;50.080;14.418;2023-05-25T01:00:57;16.25;;;5.18;;
73632;SDS011;61927;50.080;14.418;2023-05-25T01:03:26;15.60;;;4.97;;
73632;SDS011;61927;50.080;14.418;2023-05-25T01:05:55;18.67;;;5.03;;
73632;SDS011;61927;50.080;14.418;2023-05-25T01:08:23;19.85;;;5.70;;
73632;SDS011;61927;50.080;14.418;2023-05-25T01:10:51;12.82;;;4.60;;
73632;SDS011;61927;50.080;14.418;2023-05-25T01:13:18;17.67;;;4.72;;
73632;SDS011;61927;50.080;14.418;2023-05-25T01:15:48;14.88;;;4.65;;
73632;SDS011;61927;50.080;14.418;2023-05-25T01:18:17;15.82;;;5.53;;
73632;SDS011;61927;50.080;14.418;2023-05-25T01:20:50;15.88;;;5.20;;
73632;SDS011;61927;50.080;14.418;2023-05-25T01:23:21;21.10;;;5.28;;
73632;SDS011;61927;50.080;14.418;2023-05-25T01:25:54;16.48;;;6.07;;
73632;SDS011;61927;50.080;14.418;2023-05-25T01:28:31;11.98;;;5.05;;
73632;SDS011;61927;50.080;14.418;2023-05-25T01:31:04;18.63;;;5.13;;
73632;SDS011;61927;50.080;14.418;2023-05-25T01:33:31;16.40;;;5.13;;
73632;SDS011;61927;50.080;14.418;2023-05-25T01:35:59;24.13;;;5.10;;
73632;SDS011;61927;50.080;14.418;2023-05-25T01:38:25;15.30;;;5.00;;
73632;SDS011;61927;50.080;14.418;2023-05-25T01:40:51;14.35;;;4.70;;
73632;SDS011;61927;50.080;14.418;2023-05-25T01:43:16;19.63;;;4.70;;
73632;SDS011;61927;50.080;14.418;2023-05-25T01:45:42;13.68;;;4.60;;
73632;SDS011;61927;50.080;14.418;2023-05-25T01:51:10;18.30;;;5.00;;
73632;SDS011;61927;50.080;14.418;2023-05-25T01:53:51;19.25;;;4.57;;
73632;SDS011;61927;50.080;14.418;2023-05-25T01:56:23;17.30;;;5.65;;
73632;SDS011;61927;50.080;14.418;2023-05-25T01:58:51;14.48;;;4.90;;
73632;SDS011;61927;50.080;14.418;2023-05-25T02:01:18;20.15;;;5.90;;
73632;SDS011;61927;50.080;14.418;2023-05-25T02:03:45;14.38;;;5.40;;
73632;SDS011;61927;50.080;14.418;2023-05-25T02:06:14;12.65;;;4.78;;
73632;SDS011;61927;50.080;14.418;2023-05-25T02:08:40;16.88;;;4.63;;
73632;SDS011;61927;50.080;14.418;2023-05-25T02:11:06;13.98;;;4.88;;
73632;SDS011;61927;50.080;14.418;2023-05-25T02:13:31;18.85;;;5.68;;
73632;SDS011;61927;50.080;14.418;2023-05-25T02:15:57;21.10;;;5.47;;
73632;SDS011;61927;50.080;14.418;2023-05-25T02:18:22;17.45;;;4.63;;
73632;SDS011;61927;50.080;14.418;2023-05-25T02:20:48;11.35;;;4.95;;
73632;SDS011;61927;50.080;14.418;2023-05-25T02:23:14;14.00;;;4.97;;
73632;SDS011;61927;50.080;14.418;2023-05-25T02:25:43;13.55;;;4.93;;
73632;SDS011;61927;50.080;14.418;2023-05-25T02:28:08;18.52;;;5.80;;
73632;SDS011;61927;50.080;14.418;2023-05-25T02:30:34;16.58;;;5.30;;
73632;SDS011;61927;50.080;14.418;2023-05-25T02:33:00;11.90;;;5.35;;
73632;SDS011;61927;50.080;14.418;2023-05-25T02:35:26;26.27;;;5.10;;
73632;SDS011;61927;50.080;14.418;2023-05-25T02:37:52;14.25;;;5.07;;
73632;SDS011;61927;50.080;14.418;2023-05-25T02:40:18;15.43;;;5.40;;
73632;SDS011;61927;50.080;14.418;2023-05-25T02:42:43;14.40;;;5.32;;
73632;SDS011;61927;50.080;14.418;2023-05-25T02:45:09;16.23;;;5.57;;
73632;SDS011;61927;50.080;14.418;2023-05-25T02:47:35;13.45;;;5.15;;
73632;SDS011;61927;50.080;14.418;2023-05-25T02:50:01;17.23;;;6.03;;
73632;SDS011;61927;50.080;14.418;2023-05-25T02:52:27;15.98;;;6.45;;
73632;SDS011;61927;50.080;14.418;2023-05-25T02:54:54;16.33;;;5.90;;
73632;SDS011;61927;50.080;14.418;2023-05-25T02:57:20;14.23;;;5.28;;
73632;SDS011;61927;50.080;14.418;2023-05-25T02:59:48;22.65;;;5.60;;
73632;SDS011;61927;50.080;14.418;2023-05-25T03:02:13;16.40;;;5.60;;
73632;SDS011;61927;50.080;14.418;2023-05-25T03:04:43;12.43;;;5.22;;
73632;SDS011;61927;50.080;14.418;2023-05-25T03:07:10;11.82;;;5.18;;
73632;SDS011;61927;50.080;14.418;2023-05-25T03:09:36;20.58;;;4.75;;
73632;SDS011;61927;50.080;14.418;2023-05-25T03:12:02;8.88;;;4.93;;
73632;SDS011;61927;50.080;14.418;2023-05-25T03:14:28;11.93;;;5.47;;
73632;SDS011;61927;50.080;14.418;2023-05-25T03:16:53;14.60;;;4.90;;
73632;SDS011;61927;50.080;14.418;2023-05-25T03:19:19;19.05;;;5.75;;
73632;SDS011;61927;50.080;14.418;2023-05-25T03:21:45;18.35;;;5.72;;
73632;SDS011;61927;50.080;14.418;2023-05-25T03:24:11;12.80;;;5.40;;
73632;SDS011;61927;50.080;14.418;2023-05-25T03:26:37;18.55;;;6.55;;
73632;SDS011;61927;50.080;14.418;2023-05-25T03:29:03;13.70;;;5.85;;
73632;SDS011;61927;50.080;14.418;2023-05-25T03:31:31;14.10;;;6.10;;
73632;SDS011;61927;50.080;14.418;2023-05-25T03:33:57;17.70;;;6.82;;
73632;SDS011;61927;50.080;14.418;2023-05-25T03:36:22;18.40;;;6.30;;
73632;SDS011;61927;50.080;14.418;2023-05-25T03:38:52;18.80;;;5.60;;
73632;SDS011;61927;50.080;14.418;2023-05-25T03:41:18;12.52;;;5.53;;
73632;SDS011;61927;50.080;14.418;2023-05-25T03:43:43;12.23;;;5.53;;
73632;SDS011;61927;50.080;14.418;2023-05-25T03:46:09;15.60;;;5.68;;
73632;SDS011;61927;50.080;14.418;2023-05-25T03:48:36;11.07;;;5.47;;
73632;SDS011;61927;50.080;14.418;2023-05-25T03:51:02;16.73;;;5.28;;
73632;SDS011;61927;50.080;14.418;2023-05-25T03:53:28;11.77;;;5.15;;
73632;SDS011;61927;50.080;14.418;2023-05-25T03:55:54;16.75;;;5.70;;
73632;SDS011;61927;50.080;14.418;2023-05-25T03:58:19;15.68;;;5.35;;
73632;SDS011;61927;50.080;14.418;2023-05-25T04:00:45;16.48;;;5.95;;
73632;SDS011;61927;50.080;14.418;2023-05-25T04:03:13;15.35;;;6.25;;
73632;SDS011;61927;50.080;14.418;2023-05-25T04:05:39;11.48;;;4.68;;
73632;SDS011;61927;50.080;14.418;2023-05-25T04:08:06;17.77;;;5.28;;
73632;SDS011;61927;50.080;14.418;2023-05-25T04:10:34;15.70;;;5.22;;
73632;SDS011;61927;50.080;14.418;2023-05-25T04:12:59;16.90;;;5.53;;
73632;SDS011;61927;50.080;14.418;2023-05-25T04:15:25;16.25;;;5.50;;
73632;SDS011;61927;50.080;14.418;2023-05-25T04:17:51;17.67;;;6.47;;
73632;SDS011;61927;50.080;14.418;2023-05-25T04:20:16;11.70;;;5.22;;
73632;SDS011;61927;50.080;14.418;2023-05-25T04:22:42;24.50;;;7.57;;
73632;SDS011;61927;50.080;14.418;2023-05-25T04:25:09;15.52;;;5.75;;
73632;SDS011;61927;50.080;14.418;2023-05-25T04:27:35;20.80;;;5.22;;
73632;SDS011;61927;50.080;14.418;2023-05-25T04:30:01;20.25;;;5.75;;
73632;SDS011;61927;50.080;14.418;2023-05-25T04:32:27;15.18;;;5.95;;
73632;SDS011;61927;50.080;14.418;2023-05-25T04:34:54;16.05;;;6.88;;
73632;SDS011;61927;50.080;14.418;2023-05-25T04:37:21;18.63;;;8.32;;
73632;SDS011;61927;50.080;14.418;2023-05-25T04:39:51;17.77;;;4.88;;
73632;SDS011;61927;50.080;14.418;2023-05-25T04:42:19;14.32;;;4.95;;
73632;SDS011;61927;50.080;14.418;2023-05-25T04:44:48;16.13;;;4.80;;
73632;SDS011;61927;50.080;14.418;2023-05-25T04:47:20;13.43;;;5.40;;
73632;SDS011;61927;50.080;14.418;2023-05-25T04:49:46;20.60;;;5.68;;
73632;SDS011;61927;50.080;14.418;2023-05-25T04:52:12;17.63;;;5.00;;
73632;SDS011;61927;50.080;14.418;2023-05-25T04:54:37;14.65;;;5.60;;
73632;SDS011;61927;50.080;14.418;2023-05-25T04:57:03;13.63;;;5.63;;
73632;SDS011;61927;50.080;14.418;2023-05-25T04:59:29;18.92;;;5.25;;
73632;SDS011;61927;50.080;14.418;2023-05-25T05:01:54;11.35;;;4.57;;
73632;SDS011;61927;50.080;14.418;2023-05-25T05:04:20;14.82;;;4.50;;
73632;SDS011;61927;50.080;14.418;2023-05-25T05:06:46;14.63;;;5.90;;
73632;SDS011;61927;50.080;14.418;2023-05-25T05:09:11;20.52;;;4.95;;
73632;SDS011;61927;50.080;14.418;2023-05-25T05:11:37;13.20;;;4.85;;
73632;SDS011;61927;50.080;14.418;2023-05-25T05:14:03;14.43;;;5.18;;
73632;SDS011;61927;50.080;14.418;2023-05-25T05:16:29;11.65;;;4.88;;
73632;SDS011;61927;50.080;14.418;2023-05-25T05:18:58;16.30;;;6.93;;
73632;SDS011;61927;50.080;14.418;2023-05-25T05:21:25;14.48;;;6.22;;
73632;SDS011;61927;50.080;14.418;2023-05-25T05:23:50;9.82;;;4.68;;
73632;SDS011;61927;50.080;14.418;2023-05-25T05:26:16;19.10;;;5.28;;
73632;SDS011;61927;50.080;14.418;2023-05-25T05:28:41;20.75;;;5.63;;
73632;SDS011;61927;50.080;14.418;2023-05-25T05:31:10;19.75;;;6.00;;
73632;SDS011;61927;50.080;14.418;2023-05-25T05:33:36;15.68;;;5.95;;
73632;SDS011;61927;50.080;14.418;2023-05-25T05:36:02;16.70;;;5.72;;
73632;SDS011;61927;50.080;14.418;2023-05-25T05:38:28;17.65;;;5.15;;
73632;SDS011;61927;50.080;14.418;2023-05-25T05:40:55;16.52;;;5.93;;
73632;SDS011;61927;50.080;14.418;2023-05-25T05:43:20;15.38;;;4.90;;
73632;SDS011;61927;50.080;14.418;2023-05-25T05:45:46;13.98;;;4.60;;
73632;SDS011;61927;50.080;14.418;2023-05-25T05:48:12;22.98;;;5.07;;
73632;SDS011;61927;50.080;14.418;2023-05-25T05:50:37;22.90;;;5.22;;
73632;SDS011;61927;50.080;14.418;2023-05-25T05:53:04;17.15;;;4.65;;
73632;SDS011;61927;50.080;14.418;2023-05-25T05:55:32;9.65;;;4.43;;
73632;SDS011;61927;50.080;14.418;2023-05-25T05:57:58;14.05;;;4.93;;
73632;SDS011;61927;50.080;14.418;2023-05-25T06:00:24;14.75;;;4.90;;
73632;SDS011;61927;50.080;14.418;2023-05-25T06:02:49;12.30;;;4.32;;
73632;SDS011;61927;50.080;14.418;2023-05-25T06:05:16;12.70;;;4.80;;
73632;SDS011;61927;50.080;14.418;2023-05-25T06:07:42;14.10;;;4.80;;
73632;SDS011;61927;50.080;14.418;2023-05-25T06:10:08;11.30;;;4.65;;
73632;SDS011;61927;50.080;14.418;2023-05-25T06:12:34;10.85;;;4.72;;
73632;SDS011;61927;50.080;14.418;2023-05-25T06:15:01;17.67;;;5.47;;
73632;SDS011;61927;50.080;14.418;2023-05-25T06:17:28;18.75;;;6.03;;
73632;SDS011;61927;50.080;14.418;2023-05-25T06:19:54;18.80;;;5.53;;
73632;SDS011;61927;50.080;14.418;2023-05-25T06:22:20;14.50;;;5.35;;
73632;SDS011;61927;50.080;14.418;2023-05-25T06:24:46;32.63;;;5.40;;
73632;SDS011;61927;50.080;14.418;2023-05-25T06:27:12;15.00;;;4.60;;
73632;SDS011;61927;50.080;14.418;2023-05-25T06:29:38;14.57;;;4.55;;
73632;SDS011;61927;50.080;14.418;2023-05-25T06:32:03;15.95;;;4.65;;
73632;SDS011;61927;50.080;14.418;2023-05-25T06:34:29;20.42;;;4.85;;
73632;SDS011;61927;50.080;14.418;2023-05-25T06:36:55;29.73;;;4.45;;
73632;SDS011;61927;50.080;14.418;2023-05-25T06:39:22;12.05;;;4.20;;
73632;SDS011;61927;50.080;14.418;2023-05-25T06:41:48;10.65;;;4.30;;
73632;SDS011;61927;50.080;14.418;2023-05-25T06:44:15;16.55;;;5.07;;
73632;SDS011;61927;50.080;14.418;2023-05-25T06:46:40;15.50;;;4.03;;
73632;SDS011;61927;50.080;14.418;2023-05-25T06:49:06;11.60;;;4.13;;
73632;SDS011;61927;50.080;14.418;2023-05-25T06:51:32;13.05;;;4.75;;
73632;SDS011;61927;50.080;14.418;2023-05-25T06:53:58;14.88;;;4.45;;
73632;SDS011;61927;50.080;14.418;2023-05-25T06:56:24;11.80;;;4.15;;
73632;SDS011;61927;50.080;14.418;2023-05-25T06:58:49;16.85;;;4.30;;
73632;SDS011;61927;50.080;14.418;2023-05-25T07:01:15;10.95;;;4.32;;
73632;SDS011;61927;50.080;14.418;2023-05-25T07:03:41;16.30;;;4.55;;
73632;SDS011;61927;50.080;14.418;2023-05-25T07:06:07;10.07;;;3.55;;
73632;SDS011;61927;50.080;14.418;2023-05-25T07:08:33;21.92;;;4.80;;
73632;SDS011;61927;50.080;14.418;2023-05-25T07:10:59;10.20;;;4.03;;
73632;SDS011;61927;50.080;14.418;2023-05-25T07:13:25;12.00;;;4.35;;
73632;SDS011;61927;50.080;14.418;2023-05-25T07:15:50;14.95;;;3.80;;
73632;SDS011;61927;50.080;14.418;2023-05-25T07:18:17;16.17;;;4.00;;
73632;SDS011;61927;50.080;14.418;2023-05-25T07:20:43;15.77;;;4.25;;
73632;SDS011;61927;50.080;14.418;2023-05-25T07:23:10;21.42;;;4.78;;
73632;SDS011;61927;50.080;14.418;2023-05-25T07:25:39;19.48;;;4.40;;
73632;SDS011;61927;50.080;14.418;2023-05-25T07:28:06;15.82;;;4.57;;
73632;SDS011;61927;50.080;14.418;2023-05-25T07:30:32;12.45;;;4.32;;
73632;SDS011;61927;50.080;14.418;2023-05-25T07:32:58;19.50;;;4.15;;
73632;SDS011;61927;50.080;14.418;2023-05-25T07:35:24;13.80;;;4.15;;
73632;SDS011;61927;50.080;14.418;2023-05-25T07:37:57;13.65;;;3.90;;
73632;SDS011;61927;50.080;14.418;2023-05-25T07:40:24;17.23;;;5.00;;
73632;SDS011;61927;50.080;14.418;2023-05-25T07:42:50;22.45;;;4.60;;
73632;SDS011;61927;50.080;14.418;2023-05-25T07:45:16;10.88;;;4.60;;
73632;SDS011;61927;50.080;14.418;2023-05-25T07:47:42;16.58;;;4.50;;
73632;SDS011;61927;50.080;14.418;2023-05-25T07:50:08;13.20;;;4.20;;
73632;SDS011;61927;50.080;14.418;2023-05-25T07:52:35;15.82;;;4.20;;
73632;SDS011;61927;50.080;14.418;2023-05-25T07:55:02;8.32;;;3.88;;
73632;SDS011;61927;50.080;14.418;2023-05-25T07:57:30;16.92;;;6.68;;
73632;SDS011;61927;50.080;14.418;2023-05-25T07:59:56;15.38;;;4.35;;
73632;SDS011;61927;50.080;14.418;2023-05-25T08:02:21;12.60;;;4.22;;
73632;SDS011;61927;50.080;14.418;2023-05-25T08:04:47;15.20;;;4.50;;
73632;SDS011;61927;50.080;14.418;2023-05-25T08:07:13;12.98;;;4.40;;
73632;SDS011;61927;50.080;14.418;2023-05-25T08:09:39;13.82;;;5.72;;
73632;SDS011;61927;50.080;14.418;2023-05-25T08:12:05;24.83;;;5.28;;
73632;SDS011;61927;50.080;14.418;2023-05-25T08:14:30;21.00;;;5.45;;
73632;SDS011;61927;50.080;14.418;2023-05-25T08:16:56;10.13;;;4.30;;
73632;SDS011;61927;50.080;14.418;2023-05-25T08:19:22;13.85;;;4.50;;
73632;SDS011;61927;50.080;14.418;2023-05-25T08:21:49;18.95;;;7.05;;
73632;SDS011;61927;50.080;14.418;2023-05-25T08:24:15;18.40;;;5.57;;
73632;SDS011;61927;50.080;14.418;2023-05-25T08:26:41;22.30;;;5.10;;
73632;SDS011;61927;50.080;14.418;2023-05-25T08:29:07;12.35;;;5.10;;
73632;SDS011;61927;50.080;14.418;2023-05-25T08:31:33;11.63;;;4.55;;
73632;SDS011;61927;50.080;14.418;2023-05-25T08:33:59;10.05;;;4.35;;
73632;SDS011;61927;50.080;14.418;2023-05-25T08:36:26;23.70;;;4.85;;
73632;SDS011;61927;50.080;14.418;2023-05-25T08:38:52;13.45;;;5.40;;
73632;SDS011;61927;50.080;14.418;2023-05-25T08:41:18;17.23;;;4.30;;
73632;SDS011;61927;50.080;14.418;2023-05-25T08:43:46;13.38;;;4.95;;
73632;SDS011;61927;50.080;14.418;2023-05-25T08:46:12;16.60;;;4.47;;
73632;SDS011;61927;50.080;14.418;2023-05-25T08:48:39;18.30;;;4.68;;
73632;SDS011;61927;50.080;14.418;2023-05-25T08:51:07;14.85;;;5.50;;
73632;SDS011;61927;50.080;14.418;2023-05-25T08:53:34;13.90;;;4.75;;
73632;SDS011;61927;50.080;14.418;2023-05-25T08:56:06;15.73;;;4.60;;
73632;SDS011;61927;50.080;14.418;2023-05-25T08:58:38;16.08;;;4.40;;
73632;SDS011;61927;50.080;14.418;2023-05-25T09:01:09;13.88;;;4.35;;
73632;SDS011;61927;50.080;14.418;2023-05-25T09:03:39;13.95;;;4.88;;
73632;SDS011;61927;50.080;14.418;2023-05-25T09:06:05;14.38;;;4.25;;
73632;SDS011;61927;50.080;14.418;2023-05-25T09:08:32;15.85;;;4.90;;
73632;SDS011;61927;50.080;14.418;2023-05-25T09:10:59;12.13;;;4.68;;
73632;SDS011;61927;50.080;14.418;2023-05-25T09:13:26;14.10;;;5.22;;
73632;SDS011;61927;50.080;14.418;2023-05-25T09:15:52;22.73;;;5.90;;
73632;SDS011;61927;50.080;14.418;2023-05-25T09:18:18;19.70;;;4.68;;
73632;SDS011;61927;50.080;14.418;2023-05-25T09:20:44;19.10;;;4.78;;
73632;SDS011;61927;50.080;14.418;2023-05-25T09:23:10;17.42;;;6.20;;
73632;SDS011;61927;50.080;14.418;2023-05-25T09:25:35;11.75;;;4.38;;
73632;SDS011;61927;50.080;14.418;2023-05-25T09:28:02;12.75;;;4.35;;
73632;SDS011;61927;50.080;14.418;2023-05-25T09:30:28;12.38;;;3.92;;
73632;SDS011;61927;50.080;14.418;2023-05-25T09:33:07;10.95;;;3.83;;
73632;SDS011;61927;50.080;14.418;2023-05-25T09:35:38;14.35;;;3.97;;
73632;SDS011;61927;50.080;14.418;2023-05-25T09:38:04;11.18;;;4.03;;
73632;SDS011;61927;50.080;14.418;2023-05-25T09:40:34;13.05;;;3.83;;
73632;SDS011;61927;50.080;14.418;2023-05-25T09:43:03;12.88;;;4.35;;
73632;SDS011;61927;50.080;14.418;2023-05-25T09:45:32;9.02;;;4.45;;
73632;SDS011;61927;50.080;14.418;2023-05-25T09:47:58;14.98;;;5.60;;
73632;SDS011;61927;50.080;14.418;2023-05-25T09:50:27;17.05;;;3.63;;
73632;SDS011;61927;50.080;14.418;2023-05-25T09:52:57;12.32;;;4.47;;
73632;SDS011;61927;50.080;14.418;2023-05-25T09:55:27;12.52;;;5.10;;
73632;SDS011;61927;50.080;14.418;2023-05-25T09:57:53;13.20;;;4.80;;
73632;SDS011;61927;50.080;14.418;2023-05-25T10:00:23;11.13;;;4.15;;
73632;SDS011;61927;50.080;14.418;2023-05-25T10:02:49;11.85;;;4.43;;
73632;SDS011;61927;50.080;14.418;2023-05-25T10:05:15;14.77;;;4.20;;
73632;SDS011;61927;50.080;14.418;2023-05-25T10:07:42;12.98;;;4.38;;
73632;SDS011;61927;50.080;14.418;2023-05-25T10:10:09;22.58;;;5.00;;
73632;SDS011;61927;50.080;14.418;2023-05-25T10:12:39;7.43;;;3.90;;
73632;SDS011;61927;50.080;14.418;2023-05-25T10:15:06;19.10;;;4.43;;
73632;SDS011;61927;50.080;14.418;2023-05-25T10:17:47;9.85;;;3.45;;
73632;SDS011;61927;50.080;14.418;2023-05-25T10:20:21;17.20;;;6.20;;
73632;SDS011;61927;50.080;14.418;2023-05-25T10:23:04;12.73;;;4.28;;
73632;SDS011;61927;50.080;14.418;2023-05-25T10:25:44;13.25;;;4.32;;
73632;SDS011;61927;50.080;14.418;2023-05-25T10:28:13;8.65;;;3.65;;
73632;SDS011;61927;50.080;14.418;2023-05-25T10:30:46;16.80;;;4.03;;
73632;SDS011;61927;50.080;14.418;2023-05-25T10:33:13;7.47;;;3.90;;
73632;SDS011;61927;50.080;14.418;2023-05-25T10:35:39;9.00;;;3.95;;
73632;SDS011;61927;50.080;14.418;2023-05-25T10:38:07;11.65;;;4.47;;
73632;SDS011;61927;50.080;14.418;2023-05-25T10:40:34;11.23;;;3.85;;
73632;SDS011;61927;50.080;14.418;2023-05-25T10:43:01;21.67;;;4.45;;
73632;SDS011;61927;50.080;14.418;2023-05-25T10:45:27;19.73;;;5.32;;
73632;SDS011;61927;50.080;14.418;2023-05-25T10:47:53;9.98;;;4.13;;
73632;SDS011;61927;50.080;14.418;2023-05-25T10:50:20;7.13;;;3.75;;
73632;SDS011;61927;50.080;14.418;2023-05-25T10:52:58;11.95;;;3.67;;
73632;SDS011;61927;50.080;14.418;2023-05-25T10:55:26;9.25;;;3.92;;
73632;SDS011;61927;50.080;14.418;2023-05-25T11:00:34;16.48;;;4.82;;
73632;SDS011;61927;50.080;14.418;2023-05-25T11:03:00;9.90;;;3.88;;
73632;SDS011;61927;50.080;14.418;2023-05-25T11:18:44;7.47;;;3.45;;
73632;SDS011;61927;50.080;14.418;2023-05-25T11:21:14;16.17;;;3.67;;
73632;SDS011;61927;50.080;14.418;2023-05-25T11:23:53;24.67;;;4.50;;
73632;SDS011;61927;50.080;14.418;2023-05-25T11:26:33;7.63;;;3.75;;
73632;SDS011;61927;50.080;14.418;2023-05-25T11:29:01;10.30;;;3.90;;
73632;SDS011;61927;50.080;14.418;2023-05-25T11:31:37;9.20;;;3.42;;
73632;SDS011;61927;50.080;14.418;2023-05-25T11:34:03;7.32;;;3.90;;
73632;SDS011;61927;50.080;14.418;2023-05-25T11:36:30;20.67;;;3.67;;
73632;SDS011;61927;50.080;14.418;2023-05-25T11:39:02;13.43;;;3.30;;
73632;SDS011;61927;50.080;14.418;2023-05-25T11:41:29;12.57;;;3.38;;
73632;SDS011;61927;50.080;14.418;2023-05-25T11:44:02;11.95;;;3.53;;
73632;SDS011;61927;50.080;14.418;2023-05-25T11:46:32;18.00;;;4.63;;
73632;SDS011;61927;50.080;14.418;2023-05-25T11:48:59;9.90;;;3.55;;
73632;SDS011;61927;50.080;14.418;2023-05-25T11:51:26;10.18;;;3.40;;
73632;SDS011;61927;50.080;14.418;2023-05-25T11:54:23;10.52;;;3.35;;
73632;SDS011;61927;50.080;14.418;2023-05-25T11:56:53;12.55;;;4.57;;
73632;SDS011;61927;50.080;14.418;2023-05-25T11:59:36;14.65;;;3.15;;
73632;SDS011;61927;50.080;14.418;2023-05-25T12:02:03;10.43;;;3.67;;
73632;SDS011;61927;50.080;14.418;2023-05-25T12:04:30;16.65;;;3.95;;
73632;SDS011;61927;50.080;14.418;2023-05-25T12:07:04;13.57;;;3.70;;
73632;SDS011;61927;50.080;14.418;2023-05-25T12:11:57;8.93;;;3.65;;
73632;SDS011;61927;50.080;14.418;2023-05-25T12:14:23;11.75;;;3.25;;
73632;SDS011;61927;50.080;14.418;2023-05-25T12:16:49;11.25;;;4.05;;
73632;SDS011;61927;50.080;14.418;2023-05-25T12:19:16;12.70;;;3.70;;
73632;SDS011;61927;50.080;14.418;2023-05-25T12:21:42;24.60;;;3.75;;
73632;SDS011;61927;50.080;14.418;2023-05-25T12:24:09;15.93;;;3.92;;
73632;SDS011;61927;50.080;14.418;2023-05-25T12:26:48;10.32;;;2.90;;
73632;SDS011;61927;50.080;14.418;2023-05-25T12:29:15;8.73;;;3.17;;
73632;SDS011;61927;50.080;14.418;2023-05-25T12:31:41;11.05;;;3.35;;
73632;SDS011;61927;50.080;14.418;2023-05-25T12:36:49;11.32;;;3.42;;
73632;SDS011;61927;50.080;14.418;2023-05-25T12:41:54;7.95;;;3.35;;
73632;SDS011;61927;50.080;14.418;2023-05-25T12:44:35;6.45;;;3.28;;
73632;SDS011;61927;50.080;14.418;2023-05-25T12:47:15;6.57;;;3.38;;
73632;SDS011;61927;50.080;14.418;2023-05-25T12:49:45;6.28;;;3.10;;
73632;SDS011;61927;50.080;14.418;2023-05-25T12:55:20;7.28;;;3.75;;
73632;SDS011;61927;50.080;14.418;2023-05-25T12:57:51;12.20;;;4.75;;
73632;SDS011;61927;50.080;14.418;2023-05-25T13:00:53;7.43;;;3.20;;
73632;SDS011;61927;50.080;14.418;2023-05-25T13:03:12;15.30;;;3.15;;
73632;SDS011;61927;50.080;14.418;2023-05-25T13:05:37;14.27;;;3.08;;
73632;SDS011;61927;50.080;14.418;2023-05-25T13:08:03;7.40;;;3.28;;
73632;SDS011;61927;50.080;14.418;2023-05-25T13:10:30;7.30;;;3.30;;
73632;SDS011;61927;50.080;14.418;2023-05-25T13:12:58;11.30;;;3.50;;
73632;SDS011;61927;50.080;14.418;2023-05-25T13:15:25;7.80;;;2.95;;
73632;SDS011;61927;50.080;14.418;2023-05-25T13:17:51;11.15;;;3.30;;
73632;SDS011;61927;50.080;14.418;2023-05-25T13:20:19;8.40;;;3.65;;
73632;SDS011;61927;50.080;14.418;2023-05-25T13:22:47;6.70;;;3.47;;
73632;SDS011;61927;50.080;14.418;2023-05-25T13:25:13;5.68;;;3.28;;
73632;SDS011;61927;50.080;14.418;2023-05-25T13:27:42;9.75;;;3.83;;
73632;SDS011;61927;50.080;14.418;2023-05-25T13:30:10;9.02;;;3.45;;
73632;SDS011;61927;50.080;14.418;2023-05-25T13:32:37;16.85;;;3.58;;
73632;SDS011;61927;50.080;14.418;2023-05-25T13:35:03;5.32;;;3.80;;
73632;SDS011;61927;50.080;14.418;2023-05-25T13:37:34;10.70;;;3.70;;
73632;SDS011;61927;50.080;14.418;2023-05-25T13:39:59;7.60;;;3.17;;
73632;SDS011;61927;50.080;14.418;2023-05-25T13:42:25;14.88;;;4.07;;
73632;SDS011;61927;50.080;14.418;2023-05-25T13:44:51;10.27;;;3.92;;
73632;SDS011;61927;50.080;14.418;2023-05-25T13:47:17;11.23;;;3.47;;
73632;SDS011;61927;50.080;14.418;2023-05-25T13:49:42;6.38;;;3.20;;
73632;SDS011;61927;50.080;14.418;2023-05-25T13:52:09;7.63;;;3.17;;
73632;SDS011;61927;50.080;14.418;2023-05-25T13:54:35;6.53;;;3.50;;
73632;SDS011;61927;50.080;14.418;2023-05-25T13:57:01;10.68;;;4.38;;
73632;SDS011;61927;50.080;14.418;2023-05-25T13:59:27;8.85;;;3.70;;
73632;SDS011;61927;50.080;14.418;2023-05-25T14:01:53;5.60;;;3.70;;
73632;SDS011;61927;50.080;14.418;2023-05-25T14:04:18;9.02;;;4.00;;
73632;SDS011;61927;50.080;14.418;2023-05-25T14:06:44;7.97;;;3.63;;
73632;SDS011;61927;50.080;14.418;2023-05-25T14:09:14;12.60;;;3.50;;
73632;SDS011;61927;50.080;14.418;2023-05-25T14:11:40;8.95;;;3.05;;
73632;SDS011;61927;50.080;14.418;2023-05-25T14:14:06;6.55;;;3.53;;
73632;SDS011;61927;50.080;14.418;2023-05-25T14:16:35;10.70;;;3.60;;
73632;SDS011;61927;50.080;14.418;2023-05-25T14:19:02;5.88;;;3.40;;
73632;SDS011;61927;50.080;14.418;2023-05-25T14:21:29;11.75;;;3.67;;
73632;SDS011;61927;50.080;14.418;2023-05-25T14:23:55;10.80;;;3.75;;
73632;SDS011;61927;50.080;14.418;2023-05-25T14:26:24;7.47;;;3.55;;
73632;SDS011;61927;50.080;14.418;2023-05-25T14:28:53;8.52;;;3.45;;
73632;SDS011;61927;50.080;14.418;2023-05-25T14:31:19;10.50;;;4.00;;
73632;SDS011;61927;50.080;14.418;2023-05-25T14:33:45;5.65;;;3.05;;
73632;SDS011;61927;50.080;14.418;2023-05-25T14:36:11;9.55;;;3.60;;
73632;SDS011;61927;50.080;14.418;2023-05-25T14:38:36;11.27;;;3.30;;
73632;SDS011;61927;50.080;14.418;2023-05-25T14:41:02;9.13;;;3.65;;
73632;SDS011;61927;50.080;14.418;2023-05-25T14:43:28;5.25;;;2.67;;
73632;SDS011;61927;50.080;14.418;2023-05-25T14:45:55;12.52;;;4.18;;
73632;SDS011;61927;50.080;14.418;2023-05-25T14:48:21;9.27;;;3.10;;
73632;SDS011;61927;50.080;14.418;2023-05-25T14:50:49;11.98;;;3.85;;
73632;SDS011;61927;50.080;14.418;2023-05-25T14:53:15;11.63;;;3.67;;
73632;SDS011;61927;50.080;14.418;2023-05-25T14:55:41;8.25;;;3.72;;